Minerva Astra — 9HDW7 — position and weather

sailwx.info

Track history (hours):
 
Tides and Currents Weather Stations Pressure Air Temp Water Temp Dewpoint Dewpoint Depression Visibility Wind Speed Wind Dir Waves Ship Positions

Minerva Astra

Last reported at 2016-Feb-09 06:33 UTC. Time now 2016-Feb-09 07:46 UTC.
Position N 36°30' E 013°55'.

Length 248 m; draft 12.6 m.

Type: Tanker. MMSI: 256703000.

Date/timePositionNaut miles runAvg speedWind from/ knotsBaromVisibWave heightAir tempDewpointWater temp
2016-Feb-09 06:33N 36°30' E 013°55'1313.2
2016-Feb-09 05:32N 36°34' E 013°38'  
2016-Feb-06 20:28N 36°33' W 000°57'20612.8
2016-Feb-06 04:25N 36°01' W 005°10'1011.6
2016-Feb-06 03:33N 36°06' W 005°21'1 0.8
2016-Feb-06 02:29N 36°06' W 005°22'0 0.0
2016-Feb-06 01:29N 36°06' W 005°22'0 0.0
2016-Feb-05 23:11N 36°06' W 005°22'1 1.5
2016-Feb-05 22:33N 36°06' W 005°21'5 5.4
2016-Feb-05 21:33N 36°08' W 005°15'1 0.6
2016-Feb-05 20:33N 36°08' W 005°15'0 0.1
2016-Feb-05 19:32N 36°08' W 005°15'3 3.2
2016-Feb-05 18:33N 36°06' W 005°17'1 1.4
2016-Feb-05 17:33N 36°05' W 005°16'1 0.7
2016-Feb-05 16:29N 36°06' W 005°15'1 1.5
2016-Feb-05 15:31N 36°06' W 005°17'1 1.4
2016-Feb-05 14:31N 36°06' W 005°15'1 0.9
2016-Feb-05 13:26N 36°06' W 005°16'1 1.0
2016-Feb-05 12:33N 36°06' W 005°15'1 0.8
2016-Feb-05 11:33N 36°05' W 005°14'3 3.4
2016-Feb-05 10:33N 36°02' W 005°16'9 8.5
2016-Feb-05 09:33N 35°58' W 005°25'  
2016-Feb-01 10:12N 33°53' W 024°41'  
Track history (hours):
 
Tides and Currents Weather Stations Pressure Air Temp Water Temp Dewpoint Dewpoint Depression Visibility Wind Speed Wind Dir Waves Ship Positions

Minerva Astra

Last reported at 2016-Feb-09 06:33 UTC. Time now 2016-Feb-09 07:46 UTC.
Position N 36°30' E 013°55'.

Length 248 m; draft 12.6 m.

Type: Tanker. MMSI: 256703000.

Date/timePositionNaut miles runAvg speedWind from/ knotsBaromVisibWave heightAir tempDewpointWater temp
2016-Feb-09 06:33N 36°30' E 013°55'1313.2
2016-Feb-09 05:32N 36°34' E 013°38'  
2016-Feb-06 20:28N 36°33' W 000°57'20612.8
2016-Feb-06 04:25N 36°01' W 005°10'1011.6
2016-Feb-06 03:33N 36°06' W 005°21'1 0.8
2016-Feb-06 02:29N 36°06' W 005°22'0 0.0
2016-Feb-06 01:29N 36°06' W 005°22'0 0.0
2016-Feb-05 23:11N 36°06' W 005°22'1 1.5
2016-Feb-05 22:33N 36°06' W 005°21'5 5.4
2016-Feb-05 21:33N 36°08' W 005°15'1 0.6
2016-Feb-05 20:33N 36°08' W 005°15'0 0.1
2016-Feb-05 19:32N 36°08' W 005°15'3 3.2
2016-Feb-05 18:33N 36°06' W 005°17'1 1.4
2016-Feb-05 17:33N 36°05' W 005°16'1 0.7
2016-Feb-05 16:29N 36°06' W 005°15'1 1.5
2016-Feb-05 15:31N 36°06' W 005°17'1 1.4
2016-Feb-05 14:31N 36°06' W 005°15'1 0.9
2016-Feb-05 13:26N 36°06' W 005°16'1 1.0
2016-Feb-05 12:33N 36°06' W 005°15'1 0.8
2016-Feb-05 11:33N 36°05' W 005°14'3 3.4
2016-Feb-05 10:33N 36°02' W 005°16'9 8.5
2016-Feb-05 09:33N 35°58' W 005°25'  
2016-Feb-01 10:12N 33°53' W 024°41'  

Dump ship's entire track history